createdAt,value
2017-06-16T00:01:29.999Z,101758.09
2017-06-16T00:03:56.258Z,101758.14
2017-06-16T00:06:22.518Z,101761.63
2017-06-16T00:08:48.882Z,101768.98
2017-06-16T00:11:15.147Z,101769.80
2017-06-16T00:13:41.446Z,101771.14
2017-06-16T00:17:37.659Z,101777.73
2017-06-16T00:20:04.003Z,101776.52
2017-06-16T00:22:30.289Z,101774.33
2017-06-16T00:24:56.531Z,101780.16
2017-06-16T00:27:22.787Z,101781.39
2017-06-16T00:29:49.014Z,101786.17
2017-06-16T00:32:15.383Z,101788.83
2017-06-16T00:34:41.648Z,101783.36
2017-06-16T00:37:07.905Z,101792.91
2017-06-16T00:39:34.164Z,101795.66
2017-06-16T00:42:00.493Z,101796.06
2017-06-16T00:44:26.823Z,101800.04
2017-06-16T00:46:53.111Z,101799.83
2017-06-16T00:49:19.400Z,101801.86
2017-06-16T00:51:45.647Z,101802.69
2017-06-16T00:54:11.883Z,101806.09
2017-06-16T00:56:38.146Z,101807.94
2017-06-16T00:59:04.383Z,101802.75
2017-06-16T01:01:30.709Z,101812.91
2017-06-16T01:03:56.962Z,101817.64
2017-06-16T01:06:23.182Z,101824.94
2017-06-16T01:08:49.455Z,101823.12
2017-06-16T01:11:15.710Z,101830.45
2017-06-16T01:13:42.027Z,101829.29
2017-06-16T01:17:37.435Z,101837.52
2017-06-16T01:20:03.714Z,101838.56
2017-06-16T01:22:30.025Z,101839.77
2017-06-16T01:24:56.254Z,101839.59
2017-06-16T01:27:22.696Z,101842.75
2017-06-16T01:29:48.997Z,101850.75
2017-06-16T01:32:15.334Z,101850.23
2017-06-16T01:34:41.596Z,101846.83
2017-06-16T01:37:07.849Z,101853.63
2017-06-16T01:39:34.116Z,101853.83
2017-06-16T01:42:00.387Z,101854.06
2017-06-16T01:44:27.046Z,101860.48
2017-06-16T01:46:53.462Z,101858.13
2017-06-16T01:49:19.747Z,101862.59
2017-06-16T01:51:46.039Z,101858.58
2017-06-16T01:54:12.327Z,101863.97
2017-06-16T01:56:38.569Z,101868.56
2017-06-16T01:59:04.796Z,101852.22
2017-06-16T02:01:31.038Z,101862.92
2017-06-16T02:03:57.377Z,101858.08
2017-06-16T02:06:23.611Z,101863.36
2017-06-16T02:08:49.842Z,101868.94
2017-06-16T02:11:16.061Z,101872.51
2017-06-16T02:13:42.615Z,101875.20
2017-06-16T02:17:37.171Z,101881.53
2017-06-16T02:20:03.547Z,101887.36
2017-06-16T02:22:29.842Z,101892.78
2017-06-16T02:24:56.146Z,101894.42
2017-06-16T02:27:22.419Z,101887.08
2017-06-16T02:29:48.691Z,101889.78
2017-06-16T02:32:14.958Z,101886.84
2017-06-16T02:34:41.213Z,101885.45
2017-06-16T02:37:07.537Z,101897.05
2017-06-16T02:39:33.798Z,101907.17
2017-06-16T02:42:00.052Z,101907.59
2017-06-16T02:44:26.316Z,101906.37
2017-06-16T02:46:52.551Z,101911.92
2017-06-16T02:49:18.790Z,101907.00
2017-06-16T02:51:45.076Z,101908.30
2017-06-16T02:54:11.340Z,101919.25
2017-06-16T02:56:37.574Z,101921.70
2017-06-16T02:59:03.919Z,101921.72
2017-06-16T03:01:30.265Z,101919.67
2017-06-16T03:03:56.545Z,101922.36
2017-06-16T03:06:22.794Z,101931.48
2017-06-16T03:09:00.201Z,101939.13
2017-06-16T03:11:26.526Z,101941.01
2017-06-16T03:13:52.758Z,101939.41
2017-06-16T03:17:37.531Z,101934.20
2017-06-16T03:20:03.786Z,101940.14
2017-06-16T03:22:36.131Z,101936.53
2017-06-16T03:25:02.469Z,101942.60
2017-06-16T03:27:28.710Z,101946.44
2017-06-16T03:29:55.095Z,101955.35
2017-06-16T03:32:21.346Z,101953.52
2017-06-16T03:34:47.597Z,101948.41
2017-06-16T03:37:13.911Z,101951.43
2017-06-16T03:39:40.304Z,101952.52
2017-06-16T03:42:06.674Z,101962.25
2017-06-16T03:44:32.943Z,101963.35
2017-06-16T03:46:59.265Z,101962.73
2017-06-16T03:49:25.507Z,101961.72
2017-06-16T03:51:51.747Z,101968.98
2017-06-16T03:54:18.027Z,101966.45
2017-06-16T03:56:44.277Z,101965.23
2017-06-16T03:59:10.529Z,101973.06
2017-06-16T04:01:36.755Z,101978.05
2017-06-16T04:04:02.998Z,101977.38
2017-06-16T04:06:29.268Z,101981.15
2017-06-16T04:08:55.570Z,101976.37
2017-06-16T04:11:21.819Z,101978.23
2017-06-16T04:13:48.051Z,101987.83
2017-06-16T04:17:36.624Z,101985.23
2017-06-16T04:20:02.967Z,101990.91
2017-06-16T04:22:29.398Z,101999.97
2017-06-16T04:24:55.668Z,102000.30
2017-06-16T04:27:21.904Z,102007.39
2017-06-16T04:29:48.219Z,102011.27
2017-06-16T04:32:14.506Z,102015.14
2017-06-16T04:34:40.774Z,102021.95
2017-06-16T04:37:07.029Z,102021.06
2017-06-16T04:39:33.286Z,102032.97
2017-06-16T04:41:59.557Z,102032.02
2017-06-16T04:44:25.811Z,102034.24
2017-06-16T04:46:52.083Z,102037.19
2017-06-16T04:49:18.330Z,102049.70
2017-06-16T04:51:44.576Z,102048.17
2017-06-16T04:54:10.827Z,102045.94
2017-06-16T04:56:37.147Z,102046.64
2017-06-16T04:59:03.456Z,102051.89
2017-06-16T05:01:29.718Z,102053.78
2017-06-16T05:03:55.970Z,102058.89
2017-06-16T05:06:22.320Z,102054.45
2017-06-16T05:08:48.618Z,102054.45
2017-06-16T05:11:14.875Z,102059.63
2017-06-16T05:13:41.181Z,102062.27
2017-06-16T05:17:37.928Z,102067.11
2017-06-16T05:20:04.495Z,102063.00
2017-06-16T05:22:36.931Z,102063.54
2017-06-16T05:25:03.220Z,102061.17
2017-06-16T05:27:29.474Z,102067.27
2017-06-16T05:29:55.723Z,102067.53
2017-06-16T05:32:22.072Z,102072.71
2017-06-16T05:34:48.334Z,102082.51
2017-06-16T05:37:14.581Z,102086.84
2017-06-16T05:39:40.931Z,102082.26
2017-06-16T05:42:07.175Z,102081.23
2017-06-16T05:44:33.454Z,102082.64
2017-06-16T05:46:59.785Z,102078.46
2017-06-16T05:49:26.177Z,102091.94
2017-06-16T05:51:52.491Z,102097.85
2017-06-16T05:54:18.790Z,102104.02
2017-06-16T05:56:45.097Z,102102.00
2017-06-16T05:59:11.352Z,102110.78
2017-06-16T06:01:37.702Z,102120.22
2017-06-16T06:04:03.985Z,102126.16
2017-06-16T06:06:30.231Z,102132.28
2017-06-16T06:08:56.482Z,102135.73
2017-06-16T06:11:22.757Z,102138.75
2017-06-16T06:13:49.173Z,102139.16
2017-06-16T06:17:37.814Z,102150.02
2017-06-16T06:20:04.066Z,102148.94
2017-06-16T06:22:30.368Z,102148.87
2017-06-16T06:24:56.661Z,102150.12
2017-06-16T06:27:23.007Z,102162.41
2017-06-16T06:29:49.303Z,102153.14
2017-06-16T06:32:15.599Z,102149.70
2017-06-16T06:34:41.990Z,102158.89
2017-06-16T06:37:08.218Z,102161.08
2017-06-16T06:39:34.457Z,102160.91
2017-06-16T06:42:00.688Z,102160.97
2017-06-16T06:44:26.926Z,102157.38
2017-06-16T06:46:53.175Z,102158.00
2017-06-16T06:49:19.527Z,102164.80
2017-06-16T06:51:45.814Z,102162.31
2017-06-16T06:54:12.068Z,102161.80
2017-06-16T06:56:38.294Z,102162.76
2017-06-16T06:59:04.599Z,102159.88
2017-06-16T07:01:30.832Z,102161.16
2017-06-16T07:03:57.158Z,102166.30
2017-06-16T07:06:23.419Z,102162.45
2017-06-16T07:08:49.647Z,102167.38
2017-06-16T07:11:15.904Z,102164.41
2017-06-16T07:13:42.153Z,102169.86
2017-06-16T07:17:38.504Z,102176.73
2017-06-16T07:20:04.763Z,102178.24
2017-06-16T07:22:31.075Z,102182.67
2017-06-16T07:25:04.154Z,102178.81
2017-06-16T07:27:30.406Z,102168.03
2017-06-16T07:29:56.662Z,102167.88
2017-06-16T07:32:23.140Z,102170.83
2017-06-16T07:34:49.646Z,102168.77
2017-06-16T07:37:15.966Z,102175.38
2017-06-16T07:39:42.764Z,102166.44
2017-06-16T07:42:09.333Z,102175.27
2017-06-16T07:44:35.862Z,102166.22
2017-06-16T07:47:02.259Z,102176.13
2017-06-16T07:49:28.637Z,102189.83
2017-06-16T07:51:55.183Z,102180.53
2017-06-16T07:54:21.478Z,102173.73
2017-06-16T07:56:47.786Z,102180.72
2017-06-16T07:59:14.027Z,102185.69
2017-06-16T08:01:40.585Z,102183.14
2017-06-16T08:04:07.036Z,102192.70
2017-06-16T08:06:33.478Z,102199.41
2017-06-16T08:09:00.117Z,102205.17
2017-06-16T08:11:26.367Z,102203.99
2017-06-16T08:13:52.594Z,102221.49
2017-06-16T08:17:37.219Z,102229.75
2017-06-16T08:20:03.538Z,102238.55
2017-06-16T08:22:29.828Z,102242.45
2017-06-16T08:24:56.162Z,102237.30
2017-06-16T08:27:22.384Z,102242.52
2017-06-16T08:29:48.684Z,102239.31
2017-06-16T08:32:14.942Z,102241.36
2017-06-16T08:34:41.513Z,102250.86
2017-06-16T08:37:08.940Z,102249.97
2017-06-16T08:39:35.421Z,102253.48
2017-06-16T08:42:01.832Z,102256.79
2017-06-16T08:44:28.116Z,102265.71
2017-06-16T08:46:54.677Z,102271.05
2017-06-16T08:49:20.922Z,102260.40
2017-06-16T08:51:47.155Z,102262.17
2017-06-16T08:54:13.430Z,102271.20
2017-06-16T08:56:40.988Z,102279.84
2017-06-16T08:59:07.411Z,102293.10
2017-06-16T09:01:33.661Z,102288.18
2017-06-16T09:03:59.931Z,102290.89
2017-06-16T09:06:26.184Z,102285.58
2017-06-16T09:08:52.435Z,102288.00
2017-06-16T09:11:18.707Z,102288.80
2017-06-16T09:13:44.943Z,102293.08
2017-06-16T09:17:36.966Z,102297.62
2017-06-16T09:20:03.211Z,102306.53
2017-06-16T09:22:29.490Z,102307.13
2017-06-16T09:24:55.799Z,102316.20
2017-06-16T09:27:22.072Z,102319.08
2017-06-16T09:29:48.401Z,102325.78
2017-06-16T09:32:14.646Z,102321.84
2017-06-16T09:34:40.965Z,102321.52
2017-06-16T09:37:07.216Z,102324.33
2017-06-16T09:39:33.455Z,102317.38
2017-06-16T09:41:59.710Z,102321.23
2017-06-16T09:44:25.996Z,102328.07
2017-06-16T09:46:52.259Z,102327.64
2017-06-16T09:49:18.502Z,102336.89
2017-06-16T09:51:44.764Z,102336.26
2017-06-16T09:54:11.008Z,102334.98
2017-06-16T09:56:37.245Z,102338.78
2017-06-16T09:59:03.480Z,102336.23
2017-06-16T10:01:29.859Z,102335.84
2017-06-16T10:03:56.091Z,102339.77
2017-06-16T10:06:22.362Z,102347.19
2017-06-16T10:08:48.809Z,102353.84
2017-06-16T10:11:15.148Z,102352.02
2017-06-16T10:13:41.381Z,102350.65
2017-06-16T10:17:37.135Z,102345.27
2017-06-16T10:20:03.457Z,102354.05
2017-06-16T10:22:29.711Z,102364.01
2017-06-16T10:24:56.071Z,102360.93
2017-06-16T10:27:22.327Z,102368.70
2017-06-16T10:29:48.674Z,102373.34
2017-06-16T10:32:14.916Z,102368.67
2017-06-16T10:34:41.143Z,102367.77
2017-06-16T10:37:07.397Z,102372.15
2017-06-16T10:39:33.636Z,102378.48
2017-06-16T10:41:59.892Z,102392.80
2017-06-16T10:44:26.139Z,102388.27
2017-06-16T10:46:52.547Z,102379.44
2017-06-16T10:49:19.595Z,102377.64
2017-06-16T10:51:45.837Z,102378.38
2017-06-16T10:54:12.125Z,102385.47
2017-06-16T10:56:38.347Z,102389.80
2017-06-16T10:59:04.588Z,102393.80
2017-06-16T11:01:30.847Z,102392.82
2017-06-16T11:03:57.106Z,102404.80
2017-06-16T11:06:23.368Z,102408.03
2017-06-16T11:08:49.605Z,102408.30
2017-06-16T11:11:15.939Z,102421.15
2017-06-16T11:13:42.253Z,102419.61
2017-06-16T11:17:37.661Z,102413.81
2017-06-16T11:20:04.043Z,102420.84
2017-06-16T11:22:30.383Z,102423.11
2017-06-16T11:24:56.620Z,102422.59
2017-06-16T11:27:22.862Z,102429.04
2017-06-16T11:29:49.111Z,102420.92
2017-06-16T11:32:15.407Z,102422.42
2017-06-16T11:34:41.849Z,102427.08
2017-06-16T11:37:08.086Z,102427.53
2017-06-16T11:39:34.347Z,102425.58
2017-06-16T11:42:00.619Z,102425.27
2017-06-16T11:44:26.884Z,102431.20
2017-06-16T11:46:53.216Z,102433.84
2017-06-16T11:49:19.475Z,102429.87
2017-06-16T11:51:45.739Z,102428.48
2017-06-16T11:54:12.132Z,102426.92
2017-06-16T11:56:38.390Z,102445.91
2017-06-16T11:59:04.672Z,102442.95
2017-06-16T12:01:30.957Z,102455.96
2017-06-16T12:03:57.196Z,102456.84
2017-06-16T12:06:23.426Z,102454.84
2017-06-16T12:08:49.643Z,102454.61
2017-06-16T12:11:16.009Z,102455.73
2017-06-16T12:13:42.432Z,102456.36
2017-06-16T12:17:37.041Z,102449.03
2017-06-16T12:20:03.296Z,102451.03
2017-06-16T12:22:29.555Z,102451.67
2017-06-16T12:24:55.814Z,102462.22
2017-06-16T12:27:22.074Z,102464.37
2017-06-16T12:29:48.311Z,102462.09
2017-06-16T12:32:14.553Z,102464.66
2017-06-16T12:34:40.883Z,102466.16
2017-06-16T12:37:07.278Z,102471.83
2017-06-16T12:39:33.520Z,102479.80
2017-06-16T12:41:59.779Z,102480.38
2017-06-16T12:44:26.748Z,102475.86
2017-06-16T12:46:53.039Z,102471.55
2017-06-16T12:49:19.283Z,102474.91
2017-06-16T12:51:45.525Z,102471.66
2017-06-16T12:54:11.818Z,102481.09
2017-06-16T12:56:38.075Z,102482.67
2017-06-16T12:59:04.303Z,102488.81
2017-06-16T13:01:30.530Z,102494.40
2017-06-16T13:03:56.792Z,102494.19
2017-06-16T13:06:23.106Z,102479.77
2017-06-16T13:08:49.360Z,102490.66
2017-06-16T13:11:15.604Z,102482.78
2017-06-16T13:13:41.919Z,102492.39
2017-06-16T13:17:36.920Z,102494.94
2017-06-16T13:20:03.226Z,102495.84
2017-06-16T13:22:29.454Z,102505.93
2017-06-16T13:24:55.711Z,102507.24
2017-06-16T13:27:21.999Z,102508.42
2017-06-16T13:29:48.253Z,102521.27
2017-06-16T13:32:14.646Z,102515.25
2017-06-16T13:34:40.975Z,102521.02
2017-06-16T13:37:07.227Z,102518.42
2017-06-16T13:39:33.492Z,102519.64
2017-06-16T13:41:59.761Z,102532.95
2017-06-16T13:44:26.000Z,102536.72
2017-06-16T13:46:52.320Z,102534.67
2017-06-16T13:49:18.594Z,102551.13
2017-06-16T13:51:44.835Z,102547.60
2017-06-16T13:54:11.225Z,102548.60
2017-06-16T13:56:37.448Z,102546.11
2017-06-16T13:59:03.707Z,102548.37
2017-06-16T14:01:29.973Z,102553.27
2017-06-16T14:03:56.215Z,102552.58
2017-06-16T14:06:22.576Z,102557.99
2017-06-16T14:08:48.848Z,102556.42
2017-06-16T14:11:15.109Z,102548.00
2017-06-16T14:13:44.198Z,102542.20
2017-06-16T14:17:39.015Z,102552.53
2017-06-16T14:20:05.564Z,102550.67
2017-06-16T14:22:32.960Z,102558.51
2017-06-16T14:25:00.305Z,102545.09
2017-06-16T14:27:26.771Z,102551.75
2017-06-16T14:29:53.132Z,102552.50
2017-06-16T14:32:19.525Z,102555.97
2017-06-16T14:34:45.779Z,102563.89
2017-06-16T14:37:12.106Z,102558.14
2017-06-16T14:39:38.682Z,102551.64
2017-06-16T14:42:04.955Z,102561.48
2017-06-16T14:44:31.883Z,102558.47
2017-06-16T14:46:58.233Z,102559.52
2017-06-16T14:49:24.652Z,102565.53
2017-06-16T14:51:50.992Z,102562.16
2017-06-16T14:54:17.251Z,102561.48
2017-06-16T14:56:43.538Z,102563.78
2017-06-16T14:59:09.833Z,102567.77
2017-06-16T15:01:36.197Z,102564.68
2017-06-16T15:04:09.419Z,102568.90
2017-06-16T15:06:35.753Z,102563.50
2017-06-16T15:09:02.062Z,102566.66
2017-06-16T15:11:28.320Z,102569.36
2017-06-16T15:13:54.581Z,102569.69
2017-06-16T15:17:37.664Z,102571.52
2017-06-16T15:20:03.927Z,102580.97
2017-06-16T15:22:36.582Z,102581.44
2017-06-16T15:25:02.920Z,102586.95
2017-06-16T15:27:29.214Z,102587.79
2017-06-16T15:29:55.498Z,102591.69
2017-06-16T15:32:21.831Z,102585.95
2017-06-16T15:34:48.164Z,102582.46
2017-06-16T15:37:14.460Z,102583.38
2017-06-16T15:39:42.193Z,102587.38
2017-06-16T15:42:08.495Z,102591.39
2017-06-16T15:44:34.856Z,102581.34
2017-06-16T15:47:01.128Z,102584.14
2017-06-16T15:49:27.525Z,102584.19
2017-06-16T15:51:53.942Z,102586.94
2017-06-16T15:54:20.232Z,102592.83
2017-06-16T15:56:46.496Z,102592.69
2017-06-16T15:59:12.745Z,102593.64
2017-06-16T16:01:38.992Z,102591.88
2017-06-16T16:04:05.253Z,102599.56
2017-06-16T16:06:31.530Z,102602.13
2017-06-16T16:08:57.802Z,102597.20
2017-06-16T16:11:24.082Z,102597.16
2017-06-16T16:13:50.330Z,102605.12
2017-06-16T16:17:37.474Z,102609.44
2017-06-16T16:20:03.740Z,102606.77
2017-06-16T16:22:29.995Z,102606.45
2017-06-16T16:24:56.265Z,102605.36
2017-06-16T16:27:22.542Z,102602.19
2017-06-16T16:29:48.774Z,102602.83
2017-06-16T16:32:15.023Z,102608.19
2017-06-16T16:34:41.315Z,102605.28
2017-06-16T16:37:07.736Z,102606.70
2017-06-16T16:39:33.971Z,102608.19
2017-06-16T16:42:00.245Z,102615.28
2017-06-16T16:44:26.570Z,102607.75
2017-06-16T16:46:52.834Z,102606.84
2017-06-16T16:49:19.083Z,102603.81
2017-06-16T16:51:45.367Z,102612.39
2017-06-16T16:54:11.665Z,102615.00
2017-06-16T16:56:38.012Z,102608.23
2017-06-16T16:59:04.284Z,102617.13
2017-06-16T17:01:30.643Z,102618.33
2017-06-16T17:03:56.866Z,102615.59
2017-06-16T17:06:23.134Z,102617.73
2017-06-16T17:08:49.439Z,102618.89
2017-06-16T17:11:15.684Z,102624.83
2017-06-16T17:13:42.031Z,102629.45
2017-06-16T17:17:37.102Z,102625.17
2017-06-16T17:20:03.458Z,102631.47
2017-06-16T17:22:29.718Z,102631.03
2017-06-16T17:24:55.970Z,102623.16
2017-06-16T17:27:22.239Z,102630.48
2017-06-16T17:29:48.521Z,102625.17
2017-06-16T17:32:14.912Z,102631.97
2017-06-16T17:34:41.156Z,102633.71
2017-06-16T17:37:07.604Z,102633.17
2017-06-16T17:39:34.157Z,102637.60
2017-06-16T17:42:00.429Z,102641.11
2017-06-16T17:44:32.569Z,102646.75
2017-06-16T17:46:58.888Z,102643.22
2017-06-16T17:49:25.134Z,102644.84
2017-06-16T17:51:51.491Z,102647.00
2017-06-16T17:54:17.766Z,102639.48
2017-06-16T17:56:44.088Z,102645.90
2017-06-16T17:59:10.580Z,102643.08
2017-06-16T18:01:36.835Z,102648.36
2017-06-16T18:04:03.331Z,102645.78
2017-06-16T18:06:29.598Z,102644.22
2017-06-16T18:08:56.583Z,102650.22
2017-06-16T18:11:22.877Z,102656.60
2017-06-16T18:13:49.110Z,102652.58
2017-06-16T18:17:36.883Z,102653.20
2017-06-16T18:20:03.138Z,102653.24
2017-06-16T18:22:29.392Z,102659.39
2017-06-16T18:24:55.755Z,102658.25
2017-06-16T18:27:21.991Z,102656.30
2017-06-16T18:29:48.352Z,102659.27
2017-06-16T18:32:14.725Z,102658.57
2017-06-16T18:34:40.999Z,102666.00
2017-06-16T18:37:07.253Z,102663.45
2017-06-16T18:39:33.595Z,102668.55
2017-06-16T18:42:00.090Z,102667.37
2017-06-16T18:44:26.355Z,102667.83
2017-06-16T18:46:52.640Z,102665.73
2017-06-16T18:49:18.962Z,102669.79
2017-06-16T18:51:45.324Z,102660.86
2017-06-16T18:54:11.687Z,102661.25
2017-06-16T18:56:37.947Z,102660.48
2017-06-16T18:59:04.296Z,102663.91
2017-06-16T19:01:30.638Z,102670.94
2017-06-16T19:03:56.903Z,102684.33
2017-06-16T19:06:23.164Z,102687.59
2017-06-16T19:08:49.440Z,102688.08
2017-06-16T19:11:15.773Z,102692.41
2017-06-16T19:13:42.033Z,102696.01
2017-06-16T19:17:37.559Z,102690.16
2017-06-16T19:20:03.888Z,102691.41
2017-06-16T19:22:30.166Z,102698.43
2017-06-16T19:24:56.487Z,102696.98
2017-06-16T19:27:22.740Z,102699.91
2017-06-16T19:29:48.990Z,102698.97
2017-06-16T19:32:15.312Z,102707.69
2017-06-16T19:34:41.826Z,102700.38
2017-06-16T19:37:08.107Z,102695.60
2017-06-16T19:39:34.582Z,102696.31
2017-06-16T19:42:00.869Z,102697.53
2017-06-16T19:44:27.298Z,102697.63
2017-06-16T19:46:53.684Z,102702.09
2017-06-16T19:49:19.964Z,102708.08
2017-06-16T19:51:46.351Z,102710.29
2017-06-16T19:54:12.789Z,102717.08
2017-06-16T19:56:39.229Z,102718.37
2017-06-16T19:59:05.526Z,102725.26
2017-06-16T20:01:31.931Z,102728.85
2017-06-16T20:03:58.206Z,102731.63
2017-06-16T20:06:24.577Z,102731.50
2017-06-16T20:08:50.838Z,102741.71
2017-06-16T20:11:17.075Z,102743.39
2017-06-16T20:13:43.344Z,102745.86
2017-06-16T20:17:37.274Z,102751.44
2017-06-16T20:20:03.553Z,102748.87
2017-06-16T20:22:29.826Z,102753.42
2017-06-16T20:24:56.081Z,102758.87
2017-06-16T20:27:22.312Z,102756.33
2017-06-16T20:29:48.572Z,102760.19
2017-06-16T20:32:14.891Z,102766.04
2017-06-16T20:34:41.220Z,102766.60
2017-06-16T20:37:07.532Z,102760.98
2017-06-16T20:39:33.791Z,102764.68
2017-06-16T20:42:00.133Z,102760.38
2017-06-16T20:44:26.626Z,102766.16
2017-06-16T20:46:52.878Z,102764.11
2017-06-16T20:49:19.137Z,102768.56
2017-06-16T20:51:45.400Z,102762.47
2017-06-16T20:54:11.662Z,102754.85
2017-06-16T20:56:37.953Z,102756.78
2017-06-16T20:59:04.323Z,102761.11
2017-06-16T21:01:30.563Z,102759.17
2017-06-16T21:03:56.791Z,102769.52
2017-06-16T21:06:23.053Z,102765.02
2017-06-16T21:08:49.290Z,102758.66
2017-06-16T21:11:15.614Z,102755.75
2017-06-16T21:13:41.879Z,102753.03
2017-06-16T21:17:37.019Z,102755.23
2017-06-16T21:20:03.396Z,102752.18
2017-06-16T21:22:35.735Z,102753.26
2017-06-16T21:25:02.071Z,102755.86
2017-06-16T21:27:28.386Z,102751.77
2017-06-16T21:29:54.644Z,102756.14
2017-06-16T21:32:21.003Z,102757.90
2017-06-16T21:34:47.291Z,102755.09
2017-06-16T21:37:13.532Z,102758.27
2017-06-16T21:39:39.821Z,102755.34
2017-06-16T21:42:06.091Z,102751.41
2017-06-16T21:44:32.322Z,102753.59
2017-06-16T21:46:58.635Z,102756.00
2017-06-16T21:49:24.888Z,102760.15
2017-06-16T21:51:58.056Z,102764.27
2017-06-16T21:54:24.375Z,102756.02
2017-06-16T21:56:50.675Z,102758.11
2017-06-16T21:59:17.042Z,102759.64
2017-06-16T22:01:43.315Z,102754.62
2017-06-16T22:04:09.612Z,102756.30
2017-06-16T22:06:35.888Z,102754.50
2017-06-16T22:09:02.177Z,102757.00
2017-06-16T22:17:37.644Z,102747.98
2017-06-16T22:20:03.990Z,102753.19
2017-06-16T22:22:30.253Z,102754.58
2017-06-16T22:24:56.509Z,102758.52
2017-06-16T22:27:22.762Z,102750.55
2017-06-16T22:29:49.041Z,102756.53
2017-06-16T22:32:15.323Z,102756.60
2017-06-16T22:34:41.742Z,102756.72
2017-06-16T22:37:08.019Z,102761.63
2017-06-16T22:39:34.350Z,102762.55
2017-06-16T22:42:00.595Z,102766.22
2017-06-16T22:44:26.920Z,102762.94
2017-06-16T22:46:53.171Z,102758.47
2017-06-16T22:49:19.427Z,102762.54
2017-06-16T22:51:45.718Z,102761.98
2017-06-16T22:54:11.982Z,102756.08
2017-06-16T22:56:38.229Z,102761.47
2017-06-16T22:59:04.479Z,102755.05
2017-06-16T23:01:30.750Z,102753.36
2017-06-16T23:03:56.987Z,102754.94
2017-06-16T23:06:23.236Z,102754.06
2017-06-16T23:08:49.478Z,102754.32
2017-06-16T23:11:15.991Z,102748.09
2017-06-16T23:13:42.259Z,102745.08
2017-06-16T23:17:38.390Z,102742.64
2017-06-16T23:20:04.731Z,102744.63
2017-06-16T23:22:31.069Z,102745.11
2017-06-16T23:24:57.314Z,102749.77
2017-06-16T23:27:23.571Z,102751.66
2017-06-16T23:29:49.874Z,102747.44
2017-06-16T23:32:16.259Z,102750.56
2017-06-16T23:34:42.535Z,102749.25
2017-06-16T23:37:08.779Z,102748.69
2017-06-16T23:39:35.046Z,102742.96
2017-06-16T23:42:01.394Z,102741.35
2017-06-16T23:44:27.653Z,102735.69
2017-06-16T23:46:53.922Z,102734.16
2017-06-16T23:49:20.221Z,102727.10
2017-06-16T23:51:46.487Z,102727.25
2017-06-16T23:54:12.951Z,102728.06
2017-06-16T23:56:39.199Z,102723.91
2017-06-16T23:59:05.458Z,102718.00
